createdAt,value
2022-10-09T00:00:37.908Z,14.18
2022-10-09T00:03:04.117Z,9.77
2022-10-09T00:05:30.418Z,11.57
2022-10-09T00:07:56.693Z,7.47
2022-10-09T00:10:22.940Z,9.38
2022-10-09T00:12:49.828Z,9.88
2022-10-09T00:15:16.534Z,10.00
2022-10-09T00:17:42.778Z,11.15
2022-10-09T00:20:09.896Z,8.65
2022-10-09T00:22:36.257Z,15.13
2022-10-09T00:25:02.506Z,10.93
2022-10-09T00:27:28.703Z,13.18
2022-10-09T00:29:54.931Z,11.10
2022-10-09T00:32:21.710Z,11.27
2022-10-09T00:34:47.896Z,11.40
2022-10-09T00:37:14.160Z,10.45
2022-10-09T00:39:40.386Z,10.07
2022-10-09T00:42:06.620Z,7.80
2022-10-09T00:44:44.834Z,11.27
2022-10-09T00:47:15.355Z,13.93
2022-10-09T00:49:41.667Z,11.60
2022-10-09T00:52:07.870Z,9.60
2022-10-09T00:54:35.722Z,11.25
2022-10-09T00:57:02.279Z,12.15
2022-10-09T00:59:28.630Z,15.90
2022-10-09T01:01:54.921Z,9.38
2022-10-09T01:04:21.273Z,11.43
2022-10-09T01:06:47.441Z,11.15
2022-10-09T01:09:15.355Z,10.38
2022-10-09T01:11:48.951Z,10.50
2022-10-09T01:14:22.644Z,9.38
2022-10-09T01:16:57.588Z,8.98
2022-10-09T01:19:23.814Z,10.77
2022-10-09T01:21:50.101Z,10.20
2022-10-09T01:24:28.786Z,9.43
2022-10-09T01:26:54.965Z,11.23
2022-10-09T01:29:22.287Z,9.32
2022-10-09T01:31:49.440Z,8.82
2022-10-09T01:34:17.314Z,13.82
2022-10-09T01:36:44.376Z,12.55
2022-10-09T01:39:12.693Z,15.40
2022-10-09T01:41:38.887Z,11.80
2022-10-09T01:44:14.717Z,9.77
2022-10-09T01:46:40.994Z,12.27
2022-10-09T01:49:21.359Z,11.57
2022-10-09T01:51:53.585Z,11.38
2022-10-09T01:54:24.722Z,11.98
2022-10-09T01:56:52.391Z,11.73
2022-10-09T01:59:18.977Z,12.82
2022-10-09T02:01:46.573Z,8.93
2022-10-09T02:04:14.883Z,9.65
2022-10-09T02:06:41.723Z,11.77
2022-10-09T02:09:09.759Z,11.63
2022-10-09T02:11:37.623Z,10.05
2022-10-09T02:14:03.875Z,13.23
2022-10-09T02:16:37.418Z,11.30
2022-10-09T02:19:12.940Z,9.50
2022-10-09T02:21:46.836Z,13.07
2022-10-09T02:24:18.420Z,10.07
2022-10-09T02:26:44.637Z,11.90
2022-10-09T02:29:11.635Z,12.32
2022-10-09T02:31:38.779Z,11.57
2022-10-09T02:34:06.383Z,10.82
2022-10-09T02:36:33.207Z,11.75
2022-10-09T02:38:59.412Z,11.75
2022-10-09T02:41:26.336Z,10.00
2022-10-09T02:43:52.767Z,11.00
2022-10-09T02:46:19.344Z,11.82
2022-10-09T02:48:45.638Z,10.75
2022-10-09T02:51:11.870Z,10.57
2022-10-09T02:53:38.066Z,10.40
2022-10-09T02:56:04.424Z,8.60
2022-10-09T02:58:31.377Z,10.25
2022-10-09T03:00:57.622Z,10.80
2022-10-09T03:03:23.993Z,9.23
2022-10-09T03:05:59.294Z,9.63
2022-10-09T03:08:25.515Z,12.93
2022-10-09T03:10:51.772Z,11.80
2022-10-09T03:13:17.969Z,11.15
2022-10-09T03:15:44.166Z,8.88
2022-10-09T03:18:10.441Z,9.50
2022-10-09T03:20:37.440Z,9.85
2022-10-09T03:23:03.644Z,10.43
2022-10-09T03:25:30.001Z,9.40
2022-10-09T03:27:56.238Z,10.75
2022-10-09T03:30:22.450Z,10.18
2022-10-09T03:32:48.978Z,10.02
2022-10-09T03:35:15.342Z,10.77
2022-10-09T03:37:41.564Z,10.07
2022-10-09T03:40:07.938Z,10.75
2022-10-09T03:42:34.138Z,12.30
2022-10-09T03:45:04.316Z,9.02
2022-10-09T03:47:30.877Z,10.05
2022-10-09T03:49:57.139Z,10.98
2022-10-09T03:52:23.540Z,15.30
2022-10-09T03:54:49.727Z,11.32
2022-10-09T03:57:15.993Z,9.05
2022-10-09T03:59:42.293Z,12.63
2022-10-09T04:02:08.562Z,12.77
2022-10-09T04:04:34.786Z,12.45
2022-10-09T04:07:00.977Z,10.60
2022-10-09T04:09:27.146Z,11.40
2022-10-09T04:11:53.407Z,10.07
2022-10-09T04:14:19.624Z,8.85
2022-10-09T04:16:46.001Z,14.65
2022-10-09T04:19:12.432Z,10.85
2022-10-09T04:21:38.634Z,10.45
2022-10-09T04:24:08.209Z,11.40
2022-10-09T04:26:34.957Z,14.38
2022-10-09T04:29:01.272Z,10.20
2022-10-09T04:31:27.520Z,8.35
2022-10-09T04:33:56.832Z,12.23
2022-10-09T04:36:23.380Z,9.68
2022-10-09T04:38:49.663Z,10.93
2022-10-09T04:41:15.912Z,9.73
2022-10-09T04:43:42.161Z,11.48
2022-10-09T04:46:10.274Z,10.43
2022-10-09T04:48:44.352Z,12.00
2022-10-09T04:51:10.983Z,8.93
2022-10-09T04:53:37.667Z,10.43
2022-10-09T04:56:04.845Z,11.20
2022-10-09T04:58:31.465Z,13.07
2022-10-09T05:00:57.745Z,13.85
2022-10-09T05:03:23.960Z,12.02
2022-10-09T05:05:50.169Z,10.57
2022-10-09T05:08:16.402Z,8.32
2022-10-09T05:10:42.601Z,10.73
2022-10-09T05:13:08.797Z,15.50
2022-10-09T05:15:38.239Z,11.23
2022-10-09T05:18:04.494Z,11.68
2022-10-09T05:20:30.703Z,10.77
2022-10-09T05:22:56.906Z,11.57
2022-10-09T05:25:23.102Z,12.75
2022-10-09T05:27:49.326Z,11.30
2022-10-09T05:30:15.868Z,9.68
2022-10-09T05:32:42.056Z,8.95
2022-10-09T05:35:08.460Z,10.52
2022-10-09T05:37:34.639Z,14.73
2022-10-09T05:40:00.873Z,10.63
2022-10-09T05:42:27.064Z,11.57
2022-10-09T05:44:53.335Z,13.82
2022-10-09T05:47:19.739Z,14.00
2022-10-09T05:49:45.994Z,22.10
2022-10-09T05:52:12.297Z,9.25
2022-10-09T05:54:38.583Z,9.48
2022-10-09T05:57:04.862Z,12.00
2022-10-09T05:59:31.060Z,11.95
2022-10-09T06:01:57.320Z,12.15
2022-10-09T06:04:24.484Z,12.45
2022-10-09T06:06:51.125Z,8.63
2022-10-09T06:09:18.414Z,9.40
2022-10-09T06:11:44.992Z,11.20
2022-10-09T06:14:12.707Z,9.85
2022-10-09T06:16:43.029Z,12.43
2022-10-09T06:19:13.175Z,12.43
2022-10-09T06:21:39.405Z,14.00
2022-10-09T06:24:06.485Z,10.90
2022-10-09T06:26:32.951Z,10.63
2022-10-09T06:29:00.558Z,13.52
2022-10-09T06:31:30.779Z,12.43
2022-10-09T06:33:58.636Z,10.93
2022-10-09T06:36:26.630Z,12.07
2022-10-09T06:38:53.673Z,12.30
2022-10-09T06:41:20.984Z,10.25
2022-10-09T06:43:54.378Z,11.68
2022-10-09T06:46:21.891Z,10.48
2022-10-09T06:48:48.192Z,10.63
2022-10-09T06:51:15.523Z,9.85
2022-10-09T06:53:43.327Z,9.68
2022-10-09T06:56:10.528Z,11.18
2022-10-09T06:58:37.567Z,9.30
2022-10-09T07:01:03.851Z,9.00
2022-10-09T07:03:31.043Z,7.85
2022-10-09T07:06:09.284Z,8.40
2022-10-09T07:08:36.125Z,8.52
2022-10-09T07:11:12.200Z,6.60
2022-10-09T07:13:38.589Z,6.88
2022-10-09T07:16:05.197Z,8.43
2022-10-09T07:18:32.760Z,7.47
2022-10-09T07:21:00.328Z,6.70
2022-10-09T07:23:27.664Z,8.95
2022-10-09T07:25:53.855Z,9.25
2022-10-09T07:28:20.109Z,9.63
2022-10-09T07:30:46.334Z,6.40
2022-10-09T07:33:12.628Z,5.10
2022-10-09T07:35:38.846Z,6.28
2022-10-09T07:38:05.102Z,4.50
2022-10-09T07:40:34.401Z,7.28
2022-10-09T07:43:00.576Z,7.63
2022-10-09T07:45:26.784Z,5.03
2022-10-09T07:47:53.043Z,5.60
2022-10-09T07:50:19.321Z,7.07
2022-10-09T07:52:45.511Z,5.80
2022-10-09T07:55:11.751Z,7.40
2022-10-09T07:57:37.924Z,5.97
2022-10-09T08:00:04.441Z,5.38
2022-10-09T08:02:31.365Z,3.80
2022-10-09T08:04:57.577Z,5.95
2022-10-09T08:07:23.805Z,7.88
2022-10-09T08:09:49.983Z,6.07
2022-10-09T08:12:16.178Z,5.53
2022-10-09T08:14:42.445Z,5.22
2022-10-09T08:17:08.671Z,4.90
2022-10-09T08:19:34.867Z,5.78
2022-10-09T08:22:03.387Z,5.75
2022-10-09T08:24:29.968Z,5.30
2022-10-09T08:26:56.393Z,4.38
2022-10-09T08:29:22.612Z,7.03
2022-10-09T08:31:48.871Z,6.03
2022-10-09T08:34:15.650Z,6.20
2022-10-09T08:36:41.835Z,4.50
2022-10-09T08:39:08.080Z,6.85
2022-10-09T08:41:48.392Z,4.10
2022-10-09T08:44:24.020Z,6.13
2022-10-09T08:47:05.429Z,4.68
2022-10-09T08:51:59.966Z,3.33
2022-10-09T08:54:35.984Z,4.25
2022-10-09T08:57:03.948Z,5.65
2022-10-09T08:59:31.187Z,5.35
2022-10-09T09:02:17.636Z,5.03
2022-10-09T09:04:54.457Z,5.43
2022-10-09T09:07:20.960Z,4.35
2022-10-09T09:09:50.264Z,5.20
2022-10-09T09:12:31.307Z,6.05
2022-10-09T09:15:27.140Z,3.63
2022-10-09T09:17:53.344Z,6.13
2022-10-09T09:20:22.957Z,3.90
2022-10-09T09:22:50.093Z,6.35
2022-10-09T09:25:36.097Z,5.13
2022-10-09T09:28:12.494Z,4.78
2022-10-09T09:30:42.467Z,3.95
2022-10-09T09:33:15.916Z,7.90
2022-10-09T09:35:48.026Z,3.42
2022-10-09T09:38:14.524Z,5.63
2022-10-09T09:40:45.889Z,3.80
2022-10-09T09:43:23.668Z,5.13
2022-10-09T09:45:56.755Z,4.82
2022-10-09T09:48:28.997Z,4.68
2022-10-09T09:51:16.165Z,5.18
2022-10-09T09:53:43.408Z,8.13
2022-10-09T09:56:10.560Z,2.92
2022-10-09T09:58:39.164Z,5.82
2022-10-09T10:01:06.507Z,4.20
2022-10-09T10:03:34.572Z,4.50
2022-10-09T10:06:00.815Z,5.53
2022-10-09T10:08:27.099Z,4.68
2022-10-09T10:10:54.837Z,3.60
2022-10-09T10:13:22.777Z,5.18
2022-10-09T10:15:53.712Z,3.65
2022-10-09T10:18:20.774Z,6.85
2022-10-09T10:20:48.569Z,4.10
2022-10-09T10:23:23.839Z,4.13
2022-10-09T10:25:50.736Z,4.57
2022-10-09T10:28:18.498Z,3.17
2022-10-09T10:30:45.091Z,4.18
2022-10-09T10:33:11.380Z,3.78
2022-10-09T10:35:39.252Z,2.88
2022-10-09T10:38:25.400Z,4.55
2022-10-09T10:41:10.386Z,3.58
2022-10-09T10:43:48.302Z,4.53
2022-10-09T10:46:26.736Z,5.38
2022-10-09T10:48:53.415Z,3.97
2022-10-09T10:51:25.721Z,2.53
2022-10-09T10:53:57.828Z,3.42
2022-10-09T10:56:31.970Z,4.38
2022-10-09T10:59:04.132Z,5.28
2022-10-09T11:01:35.096Z,3.42
2022-10-09T11:04:10.769Z,4.53
2022-10-09T11:06:46.555Z,5.53
2022-10-09T11:09:21.121Z,3.80
2022-10-09T11:11:55.530Z,2.30
2022-10-09T11:14:21.679Z,4.05
2022-10-09T11:17:08.193Z,5.13
2022-10-09T11:19:59.763Z,3.33
2022-10-09T11:22:29.006Z,2.60
2022-10-09T11:24:57.988Z,4.00
2022-10-09T11:27:48.862Z,3.42
2022-10-09T11:30:16.215Z,3.15
2022-10-09T11:33:21.417Z,4.55
2022-10-09T11:35:50.091Z,4.57
2022-10-09T11:38:31.470Z,3.80
2022-10-09T11:40:58.629Z,5.18
2022-10-09T11:43:24.852Z,4.55
2022-10-09T11:46:27.489Z,4.50
2022-10-09T11:48:59.261Z,6.88
2022-10-09T11:51:28.314Z,3.75
2022-10-09T11:53:54.537Z,3.25
2022-10-09T11:56:28.339Z,4.10
2022-10-09T11:59:01.777Z,5.50
2022-10-09T12:01:36.956Z,2.42
2022-10-09T12:04:12.351Z,3.92
2022-10-09T12:07:04.960Z,2.53
2022-10-09T12:09:49.378Z,3.00
2022-10-09T12:12:15.742Z,3.35
2022-10-09T12:14:43.254Z,2.80
2022-10-09T12:17:22.729Z,2.42
2022-10-09T12:20:00.784Z,3.40
2022-10-09T12:22:27.344Z,3.22
2022-10-09T12:24:55.303Z,2.42
2022-10-09T12:27:25.822Z,1.83
2022-10-09T12:29:56.664Z,2.65
2022-10-09T12:32:28.071Z,1.63
2022-10-09T12:34:55.356Z,1.95
2022-10-09T12:37:22.701Z,2.42
2022-10-09T12:39:49.591Z,3.08
2022-10-09T12:42:21.293Z,7.15
2022-10-09T12:44:48.672Z,2.08
2022-10-09T12:47:22.426Z,3.72
2022-10-09T12:50:15.163Z,4.28
2022-10-09T12:52:48.628Z,2.78
2022-10-09T12:55:16.175Z,4.00
2022-10-09T12:57:42.739Z,4.05
2022-10-09T13:00:13.459Z,3.33
2022-10-09T13:02:40.164Z,8.73
2022-10-09T13:05:06.596Z,3.97
2022-10-09T13:07:32.919Z,2.78
2022-10-09T13:10:04.430Z,3.20
2022-10-09T13:12:30.972Z,4.15
2022-10-09T13:15:05.045Z,2.33
2022-10-09T13:17:33.389Z,4.78
2022-10-09T13:20:22.720Z,2.65
2022-10-09T13:22:59.238Z,2.25
2022-10-09T13:25:27.147Z,2.38
2022-10-09T13:27:53.651Z,1.77
2022-10-09T13:30:19.867Z,3.00
2022-10-09T13:32:46.138Z,3.50
2022-10-09T13:35:12.345Z,2.53
2022-10-09T13:37:38.631Z,5.22
2022-10-09T13:40:05.796Z,2.95
2022-10-09T13:42:33.300Z,4.40
2022-10-09T13:44:59.511Z,4.53
2022-10-09T13:47:25.694Z,3.58
2022-10-09T13:49:52.035Z,2.35
2022-10-09T13:52:18.483Z,6.07
2022-10-09T13:54:44.767Z,4.45
2022-10-09T13:57:10.976Z,3.13
2022-10-09T13:59:37.867Z,4.03
2022-10-09T14:02:04.079Z,3.78
2022-10-09T14:04:30.529Z,3.42
2022-10-09T14:06:56.784Z,2.90
2022-10-09T14:09:24.185Z,2.63
2022-10-09T14:11:50.478Z,4.32
2022-10-09T14:14:16.767Z,2.45
2022-10-09T14:16:43.144Z,3.30
2022-10-09T14:19:09.471Z,2.25
2022-10-09T14:21:35.765Z,4.78
2022-10-09T14:24:02.525Z,6.28
2022-10-09T14:26:28.975Z,4.10
2022-10-09T14:28:55.491Z,2.20
2022-10-09T14:31:21.750Z,3.03
2022-10-09T14:33:48.267Z,3.55
2022-10-09T14:36:18.448Z,2.30
2022-10-09T14:38:44.718Z,3.47
2022-10-09T14:41:13.205Z,3.15
2022-10-09T14:43:39.473Z,2.95
2022-10-09T14:46:07.119Z,3.75
2022-10-09T14:48:33.812Z,2.63
2022-10-09T14:51:04.168Z,4.47
2022-10-09T14:53:30.379Z,2.50
2022-10-09T14:55:59.116Z,3.97
2022-10-09T14:58:25.400Z,3.10
2022-10-09T15:00:51.584Z,4.47
2022-10-09T15:03:17.947Z,2.90
2022-10-09T15:05:44.293Z,3.47
2022-10-09T15:08:10.532Z,2.75
2022-10-09T15:10:36.755Z,2.53
2022-10-09T15:13:03.064Z,2.13
2022-10-09T15:15:32.521Z,4.18
2022-10-09T15:17:58.979Z,3.33
2022-10-09T15:20:25.329Z,3.85
2022-10-09T15:22:51.568Z,3.22
2022-10-09T15:25:17.866Z,4.93
2022-10-09T15:27:44.111Z,2.88
2022-10-09T15:30:10.631Z,2.25
2022-10-09T15:32:36.931Z,3.88
2022-10-09T15:35:03.138Z,2.60
2022-10-09T15:37:29.337Z,3.58
2022-10-09T15:39:55.527Z,6.28
2022-10-09T15:42:21.728Z,2.83
2022-10-09T15:44:48.368Z,5.32
2022-10-09T15:47:16.774Z,8.70
2022-10-09T15:49:46.624Z,2.50
2022-10-09T15:52:15.293Z,3.05
2022-10-09T15:54:41.567Z,2.80
2022-10-09T15:57:08.015Z,3.45
2022-10-09T15:59:38.070Z,3.47
2022-10-09T16:02:04.522Z,5.28
2022-10-09T16:04:30.979Z,3.38
2022-10-09T16:06:58.217Z,4.38
2022-10-09T16:09:24.646Z,2.88
2022-10-09T16:11:50.909Z,2.97
2022-10-09T16:14:17.241Z,3.47
2022-10-09T16:16:43.558Z,5.10
2022-10-09T16:19:10.102Z,4.65
2022-10-09T16:21:36.561Z,4.47
2022-10-09T16:24:02.848Z,6.28
2022-10-09T16:26:29.720Z,4.22
2022-10-09T16:28:56.169Z,4.10
2022-10-09T16:31:23.966Z,4.22
2022-10-09T16:33:50.270Z,4.55
2022-10-09T16:36:16.886Z,7.07
2022-10-09T16:38:43.225Z,6.47
2022-10-09T16:41:10.637Z,5.65
2022-10-09T16:43:37.936Z,6.15
2022-10-09T16:46:09.980Z,3.80
2022-10-09T16:48:36.323Z,4.90
2022-10-09T16:51:06.552Z,4.03
2022-10-09T16:53:34.028Z,4.93
2022-10-09T16:56:06.877Z,4.20
2022-10-09T16:58:34.117Z,4.00
2022-10-09T17:01:03.949Z,3.17
2022-10-09T17:03:33.851Z,5.88
2022-10-09T17:06:00.232Z,3.58
2022-10-09T17:08:26.498Z,5.20
2022-10-09T17:10:52.739Z,3.80
2022-10-09T17:13:18.979Z,5.43
2022-10-09T17:15:45.383Z,3.53
2022-10-09T17:18:11.708Z,5.25
2022-10-09T17:20:38.687Z,4.93
2022-10-09T17:23:07.761Z,3.33
2022-10-09T17:25:37.847Z,3.35
2022-10-09T17:28:07.885Z,2.63
2022-10-09T17:30:37.850Z,5.47
2022-10-09T17:33:04.170Z,3.72
2022-10-09T17:35:30.717Z,4.22
2022-10-09T17:37:57.924Z,3.08
2022-10-09T17:40:24.852Z,2.88
2022-10-09T17:42:51.222Z,5.47
2022-10-09T17:45:17.744Z,4.82
2022-10-09T17:47:43.951Z,2.95
2022-10-09T17:50:10.224Z,2.97
2022-10-09T17:52:36.494Z,4.72
2022-10-09T17:55:02.808Z,3.60
2022-10-09T17:57:29.042Z,4.97
2022-10-09T17:59:55.248Z,19.45
2022-10-09T18:02:21.485Z,13.15
2022-10-09T18:04:47.693Z,6.32
2022-10-09T18:07:14.975Z,4.85
2022-10-09T18:09:41.203Z,5.15
2022-10-09T18:12:07.452Z,5.70
2022-10-09T18:14:33.750Z,5.40
2022-10-09T18:17:00.033Z,4.07
2022-10-09T18:19:26.279Z,4.35
2022-10-09T18:21:52.842Z,3.50
2022-10-09T18:24:19.062Z,4.10
2022-10-09T18:26:45.392Z,4.00
2022-10-09T18:29:11.937Z,4.90
2022-10-09T18:31:38.912Z,3.95
2022-10-09T18:34:05.294Z,4.03
2022-10-09T18:36:31.793Z,4.30
2022-10-09T18:39:03.486Z,3.63
2022-10-09T18:41:29.962Z,3.28
2022-10-09T18:43:59.691Z,3.42
2022-10-09T18:46:28.988Z,5.70
2022-10-09T18:48:55.544Z,4.53
2022-10-09T18:51:23.189Z,4.97
2022-10-09T18:53:51.978Z,3.88
2022-10-09T18:56:19.519Z,4.57
2022-10-09T18:58:45.937Z,3.63
2022-10-09T19:01:12.383Z,4.93
2022-10-09T19:03:38.767Z,5.28
2022-10-09T19:06:05.222Z,4.53
2022-10-09T19:08:31.405Z,4.90
2022-10-09T19:10:57.625Z,4.90
2022-10-09T19:13:24.931Z,4.60
2022-10-09T19:15:55.185Z,4.57
2022-10-09T19:18:21.714Z,5.18
2022-10-09T19:20:48.277Z,3.08
2022-10-09T19:23:15.191Z,9.75
2022-10-09T19:25:51.528Z,4.40
2022-10-09T19:28:17.796Z,5.25
2022-10-09T19:30:44.095Z,3.40
2022-10-09T19:33:10.838Z,4.75
2022-10-09T19:35:50.861Z,4.75
2022-10-09T19:38:17.099Z,3.47
2022-10-09T19:40:43.924Z,4.45
2022-10-09T19:43:10.648Z,5.25
2022-10-09T19:45:36.859Z,3.80
2022-10-09T19:48:03.296Z,5.22
2022-10-09T19:50:29.663Z,4.95
2022-10-09T19:52:55.987Z,5.97
2022-10-09T19:55:23.544Z,4.65
2022-10-09T19:57:51.424Z,5.53
2022-10-09T20:00:18.003Z,3.05
2022-10-09T20:02:44.220Z,4.25
2022-10-09T20:05:10.662Z,8.98
2022-10-09T20:07:36.877Z,4.70
2022-10-09T20:10:04.060Z,4.25
2022-10-09T20:12:31.037Z,4.10
2022-10-09T20:14:57.288Z,5.38
2022-10-09T20:17:24.069Z,3.97
2022-10-09T20:19:50.325Z,4.13
2022-10-09T20:22:16.528Z,4.43
2022-10-09T20:24:42.764Z,4.53
2022-10-09T20:27:08.954Z,5.53
2022-10-09T20:29:35.143Z,5.55
2022-10-09T20:32:01.387Z,5.30
2022-10-09T20:34:27.687Z,4.47
2022-10-09T20:36:53.912Z,6.93
2022-10-09T20:39:21.314Z,3.53
2022-10-09T20:41:47.767Z,4.00
2022-10-09T20:44:14.414Z,5.20
2022-10-09T20:46:41.068Z,6.00
2022-10-09T20:49:08.777Z,5.53
2022-10-09T20:51:35.664Z,6.57
2022-10-09T20:54:02.250Z,4.80
2022-10-09T20:56:29.474Z,5.20
2022-10-09T20:58:56.078Z,4.50
2022-10-09T21:01:22.860Z,5.72
2022-10-09T21:03:49.176Z,4.63
2022-10-09T21:06:16.680Z,5.35
2022-10-09T21:08:42.978Z,5.18
2022-10-09T21:11:10.505Z,5.38
2022-10-09T21:13:37.456Z,5.55
2022-10-09T21:16:07.904Z,4.45
2022-10-09T21:18:34.159Z,4.80
2022-10-09T21:21:04.895Z,4.55
2022-10-09T21:23:31.139Z,4.60
2022-10-09T21:25:57.364Z,5.70
2022-10-09T21:28:23.931Z,6.32
2022-10-09T21:30:50.299Z,5.07
2022-10-09T21:33:16.880Z,4.97
2022-10-09T21:35:45.089Z,3.92
2022-10-09T21:38:12.842Z,5.95
2022-10-09T21:40:39.484Z,7.47
2022-10-09T21:43:05.790Z,5.75
2022-10-09T21:45:32.370Z,4.88
2022-10-09T21:47:58.618Z,4.47
2022-10-09T21:50:25.099Z,4.88
2022-10-09T21:52:51.807Z,6.15
2022-10-09T21:55:18.286Z,5.60
2022-10-09T21:57:45.271Z,5.38
2022-10-09T22:00:11.917Z,7.25
2022-10-09T22:02:38.212Z,4.63
2022-10-09T22:05:04.641Z,4.38
2022-10-09T22:07:32.728Z,5.60
2022-10-09T22:09:59.279Z,7.25
2022-10-09T22:12:25.614Z,4.47
2022-10-09T22:14:51.900Z,6.25
2022-10-09T22:17:18.285Z,4.88
2022-10-09T22:19:44.568Z,4.65
2022-10-09T22:22:10.787Z,6.63
2022-10-09T22:24:37.010Z,5.72
2022-10-09T22:27:03.307Z,4.50
2022-10-09T22:29:29.542Z,6.13
2022-10-09T22:31:55.739Z,5.00
2022-10-09T22:34:21.967Z,5.53
2022-10-09T22:36:48.214Z,4.03
2022-10-09T22:39:14.457Z,7.35
2022-10-09T22:41:40.657Z,5.82
2022-10-09T22:44:08.078Z,5.00
2022-10-09T22:46:36.144Z,3.90
2022-10-09T22:49:02.776Z,4.07
2022-10-09T22:51:29.362Z,3.47
2022-10-09T22:53:56.176Z,4.30
2022-10-09T22:56:23.686Z,4.82
2022-10-09T22:58:50.548Z,7.72
2022-10-09T23:01:18.491Z,4.53
2022-10-09T23:03:44.867Z,4.57
2022-10-09T23:06:16.133Z,3.72
2022-10-09T23:08:43.272Z,5.82
2022-10-09T23:11:09.902Z,7.15
2022-10-09T23:13:36.162Z,6.03
2022-10-09T23:16:03.636Z,5.50
2022-10-09T23:18:30.030Z,3.25
2022-10-09T23:20:56.628Z,6.50
2022-10-09T23:23:22.846Z,5.07
2022-10-09T23:25:49.079Z,4.22
2022-10-09T23:28:15.492Z,4.53
2022-10-09T23:30:41.849Z,4.80
2022-10-09T23:33:13.522Z,5.40
2022-10-09T23:35:43.945Z,5.43
2022-10-09T23:38:10.168Z,4.57
2022-10-09T23:40:36.479Z,3.72
2022-10-09T23:43:02.708Z,4.35
2022-10-09T23:45:28.898Z,4.78
2022-10-09T23:47:55.259Z,6.40
2022-10-09T23:50:21.455Z,5.75
2022-10-09T23:52:47.938Z,4.53
2022-10-09T23:55:14.339Z,8.68
2022-10-09T23:57:40.523Z,6.82
